sensor_id;sensor_type;location;lat;lon;timestamp;P1;durP1;ratioP1;P2;durP2;ratioP2
30533;SDS011;73248;52.398;9.814;2024-02-28T00:00:12;17.20;;;9.40;;
30533;SDS011;73248;52.398;9.814;2024-02-28T00:02:38;17.42;;;9.05;;
30533;SDS011;73248;52.398;9.814;2024-02-28T00:05:03;19.45;;;9.65;;
30533;SDS011;73248;52.398;9.814;2024-02-28T00:07:29;15.52;;;8.82;;
30533;SDS011;73248;52.398;9.814;2024-02-28T00:09:55;20.17;;;10.00;;
30533;SDS011;73248;52.398;9.814;2024-02-28T00:12:23;17.85;;;9.48;;
30533;SDS011;73248;52.398;9.814;2024-02-28T00:17:16;20.05;;;10.00;;
30533;SDS011;73248;52.398;9.814;2024-02-28T00:19:41;20.65;;;9.85;;
30533;SDS011;73248;52.398;9.814;2024-02-28T00:22:07;20.58;;;9.45;;
30533;SDS011;73248;52.398;9.814;2024-02-28T00:24:33;20.45;;;10.05;;
30533;SDS011;73248;52.398;9.814;2024-02-28T00:26:59;17.73;;;10.15;;
30533;SDS011;73248;52.398;9.814;2024-02-28T00:29:25;24.65;;;11.02;;
30533;SDS011;73248;52.398;9.814;2024-02-28T00:31:51;21.40;;;10.80;;
30533;SDS011;73248;52.398;9.814;2024-02-28T00:34:17;20.85;;;10.52;;
30533;SDS011;73248;52.398;9.814;2024-02-28T00:36:43;19.08;;;10.38;;
30533;SDS011;73248;52.398;9.814;2024-02-28T00:39:08;21.95;;;10.05;;
30533;SDS011;73248;52.398;9.814;2024-02-28T00:41:35;18.20;;;10.15;;
30533;SDS011;73248;52.398;9.814;2024-02-28T00:44:01;21.40;;;11.05;;
30533;SDS011;73248;52.398;9.814;2024-02-28T00:46:27;21.08;;;10.70;;
30533;SDS011;73248;52.398;9.814;2024-02-28T00:48:53;17.13;;;9.07;;
30533;SDS011;73248;52.398;9.814;2024-02-28T00:51:18;18.80;;;9.65;;
30533;SDS011;73248;52.398;9.814;2024-02-28T00:53:44;19.00;;;9.88;;
30533;SDS011;73248;52.398;9.814;2024-02-28T00:56:10;17.17;;;9.35;;
30533;SDS011;73248;52.398;9.814;2024-02-28T00:58:35;17.80;;;8.82;;
30533;SDS011;73248;52.398;9.814;2024-02-28T01:01:01;18.75;;;10.05;;
30533;SDS011;73248;52.398;9.814;2024-02-28T01:03:27;19.52;;;10.38;;
30533;SDS011;73248;52.398;9.814;2024-02-28T01:05:53;18.13;;;10.02;;
30533;SDS011;73248;52.398;9.814;2024-02-28T01:08:18;17.73;;;9.77;;
30533;SDS011;73248;52.398;9.814;2024-02-28T01:10:44;19.15;;;9.68;;
30533;SDS011;73248;52.398;9.814;2024-02-28T01:13:10;19.42;;;9.70;;
30533;SDS011;73248;52.398;9.814;2024-02-28T01:15:36;23.75;;;10.90;;
30533;SDS011;73248;52.398;9.814;2024-02-28T01:18:04;24.60;;;11.38;;
30533;SDS011;73248;52.398;9.814;2024-02-28T01:20:29;19.90;;;9.65;;
30533;SDS011;73248;52.398;9.814;2024-02-28T01:22:55;21.70;;;11.32;;
30533;SDS011;73248;52.398;9.814;2024-02-28T01:25:21;18.60;;;9.60;;
30533;SDS011;73248;52.398;9.814;2024-02-28T01:27:46;21.25;;;10.20;;
30533;SDS011;73248;52.398;9.814;2024-02-28T01:30:12;18.50;;;10.15;;
30533;SDS011;73248;52.398;9.814;2024-02-28T01:32:38;23.75;;;10.18;;
30533;SDS011;73248;52.398;9.814;2024-02-28T01:35:03;21.08;;;10.43;;
30533;SDS011;73248;52.398;9.814;2024-02-28T01:37:29;24.13;;;10.85;;
30533;SDS011;73248;52.398;9.814;2024-02-28T01:39:55;20.80;;;9.93;;
30533;SDS011;73248;52.398;9.814;2024-02-28T01:42:20;19.48;;;10.30;;
30533;SDS011;73248;52.398;9.814;2024-02-28T01:44:47;19.95;;;10.27;;
30533;SDS011;73248;52.398;9.814;2024-02-28T01:47:14;19.92;;;10.43;;
30533;SDS011;73248;52.398;9.814;2024-02-28T01:49:40;21.88;;;10.27;;
30533;SDS011;73248;52.398;9.814;2024-02-28T01:52:07;21.33;;;10.38;;
30533;SDS011;73248;52.398;9.814;2024-02-28T01:54:34;21.60;;;10.60;;
30533;SDS011;73248;52.398;9.814;2024-02-28T01:57:00;19.95;;;10.50;;
30533;SDS011;73248;52.398;9.814;2024-02-28T01:59:27;20.20;;;10.45;;
30533;SDS011;73248;52.398;9.814;2024-02-28T02:01:54;22.95;;;10.52;;
30533;SDS011;73248;52.398;9.814;2024-02-28T02:04:20;20.52;;;10.63;;
30533;SDS011;73248;52.398;9.814;2024-02-28T02:06:46;20.73;;;10.88;;
30533;SDS011;73248;52.398;9.814;2024-02-28T02:09:14;22.25;;;11.20;;
30533;SDS011;73248;52.398;9.814;2024-02-28T02:11:40;22.23;;;10.75;;
30533;SDS011;73248;52.398;9.814;2024-02-28T02:14:05;21.13;;;10.55;;
30533;SDS011;73248;52.398;9.814;2024-02-28T02:16:31;20.33;;;10.63;;
30533;SDS011;73248;52.398;9.814;2024-02-28T02:18:57;22.48;;;10.60;;
30533;SDS011;73248;52.398;9.814;2024-02-28T02:21:23;23.67;;;11.18;;
30533;SDS011;73248;52.398;9.814;2024-02-28T02:23:51;23.83;;;10.68;;
30533;SDS011;73248;52.398;9.814;2024-02-28T02:26:17;25.90;;;10.30;;
30533;SDS011;73248;52.398;9.814;2024-02-28T02:28:43;27.35;;;11.82;;
30533;SDS011;73248;52.398;9.814;2024-02-28T02:31:10;25.48;;;10.70;;
30533;SDS011;73248;52.398;9.814;2024-02-28T02:36:02;19.52;;;10.57;;
30533;SDS011;73248;52.398;9.814;2024-02-28T02:38:28;24.85;;;10.48;;
30533;SDS011;73248;52.398;9.814;2024-02-28T02:40:53;20.67;;;10.45;;
30533;SDS011;73248;52.398;9.814;2024-02-28T02:43:19;23.77;;;11.00;;
30533;SDS011;73248;52.398;9.814;2024-02-28T02:45:44;25.05;;;11.35;;
30533;SDS011;73248;52.398;9.814;2024-02-28T02:48:10;25.10;;;10.48;;
30533;SDS011;73248;52.398;9.814;2024-02-28T02:50:36;24.25;;;11.68;;
30533;SDS011;73248;52.398;9.814;2024-02-28T02:53:02;21.08;;;10.98;;
30533;SDS011;73248;52.398;9.814;2024-02-28T02:55:28;24.05;;;11.68;;
30533;SDS011;73248;52.398;9.814;2024-02-28T02:57:54;31.85;;;11.20;;
30533;SDS011;73248;52.398;9.814;2024-02-28T03:00:20;24.48;;;11.77;;
30533;SDS011;73248;52.398;9.814;2024-02-28T03:02:46;23.52;;;11.02;;
30533;SDS011;73248;52.398;9.814;2024-02-28T03:05:12;24.35;;;10.98;;
30533;SDS011;73248;52.398;9.814;2024-02-28T03:07:37;25.63;;;11.05;;
30533;SDS011;73248;52.398;9.814;2024-02-28T03:10:03;21.67;;;10.40;;
30533;SDS011;73248;52.398;9.814;2024-02-28T03:12:29;25.63;;;11.63;;
30533;SDS011;73248;52.398;9.814;2024-02-28T03:14:55;25.10;;;12.52;;
30533;SDS011;73248;52.398;9.814;2024-02-28T03:17:21;23.88;;;11.50;;
30533;SDS011;73248;52.398;9.814;2024-02-28T03:19:49;26.33;;;12.10;;
30533;SDS011;73248;52.398;9.814;2024-02-28T03:22:14;22.48;;;11.40;;
30533;SDS011;73248;52.398;9.814;2024-02-28T03:24:40;27.58;;;12.93;;
30533;SDS011;73248;52.398;9.814;2024-02-28T03:27:06;23.63;;;12.27;;
30533;SDS011;73248;52.398;9.814;2024-02-28T03:29:31;23.35;;;11.00;;
30533;SDS011;73248;52.398;9.814;2024-02-28T03:31:58;27.83;;;12.82;;
30533;SDS011;73248;52.398;9.814;2024-02-28T03:34:24;25.73;;;12.52;;
30533;SDS011;73248;52.398;9.814;2024-02-28T03:36:49;28.30;;;12.80;;
30533;SDS011;73248;52.398;9.814;2024-02-28T03:39:15;23.10;;;11.55;;
30533;SDS011;73248;52.398;9.814;2024-02-28T03:41:41;26.45;;;12.43;;
30533;SDS011;73248;52.398;9.814;2024-02-28T03:44:07;24.42;;;12.73;;
30533;SDS011;73248;52.398;9.814;2024-02-28T03:46:33;28.00;;;12.82;;
30533;SDS011;73248;52.398;9.814;2024-02-28T03:48:58;28.05;;;12.38;;
30533;SDS011;73248;52.398;9.814;2024-02-28T03:51:24;26.52;;;12.45;;
30533;SDS011;73248;52.398;9.814;2024-02-28T03:53:50;24.55;;;11.88;;
30533;SDS011;73248;52.398;9.814;2024-02-28T03:56:22;28.23;;;13.05;;
30533;SDS011;73248;52.398;9.814;2024-02-28T03:58:51;25.60;;;11.38;;
30533;SDS011;73248;52.398;9.814;2024-02-28T04:01:17;29.80;;;15.10;;
30533;SDS011;73248;52.398;9.814;2024-02-28T04:03:43;23.75;;;12.38;;
30533;SDS011;73248;52.398;9.814;2024-02-28T04:06:10;29.20;;;13.65;;
30533;SDS011;73248;52.398;9.814;2024-02-28T04:08:36;24.55;;;11.35;;
30533;SDS011;73248;52.398;9.814;2024-02-28T04:11:01;23.52;;;10.80;;
30533;SDS011;73248;52.398;9.814;2024-02-28T04:13:27;24.58;;;11.43;;
30533;SDS011;73248;52.398;9.814;2024-02-28T04:15:53;26.65;;;11.77;;
30533;SDS011;73248;52.398;9.814;2024-02-28T04:18:18;27.88;;;11.52;;
30533;SDS011;73248;52.398;9.814;2024-02-28T04:20:44;30.90;;;11.82;;
30533;SDS011;73248;52.398;9.814;2024-02-28T04:23:10;28.52;;;12.82;;
30533;SDS011;73248;52.398;9.814;2024-02-28T04:25:35;26.25;;;12.77;;
30533;SDS011;73248;52.398;9.814;2024-02-28T04:28:02;25.92;;;12.40;;
30533;SDS011;73248;52.398;9.814;2024-02-28T04:30:28;31.42;;;12.82;;
30533;SDS011;73248;52.398;9.814;2024-02-28T04:32:54;27.27;;;12.52;;
30533;SDS011;73248;52.398;9.814;2024-02-28T04:35:19;27.30;;;13.02;;
30533;SDS011;73248;52.398;9.814;2024-02-28T04:37:45;31.75;;;13.43;;
30533;SDS011;73248;52.398;9.814;2024-02-28T04:40:11;34.13;;;14.18;;
30533;SDS011;73248;52.398;9.814;2024-02-28T04:42:37;27.98;;;12.35;;
30533;SDS011;73248;52.398;9.814;2024-02-28T04:45:03;31.25;;;13.95;;
30533;SDS011;73248;52.398;9.814;2024-02-28T04:47:29;30.25;;;13.45;;
30533;SDS011;73248;52.398;9.814;2024-02-28T04:49:55;32.50;;;15.07;;
30533;SDS011;73248;52.398;9.814;2024-02-28T04:52:22;35.55;;;14.05;;
30533;SDS011;73248;52.398;9.814;2024-02-28T04:54:47;34.08;;;14.23;;
30533;SDS011;73248;52.398;9.814;2024-02-28T04:57:13;32.47;;;14.35;;
30533;SDS011;73248;52.398;9.814;2024-02-28T04:59:40;29.85;;;13.73;;
30533;SDS011;73248;52.398;9.814;2024-02-28T05:02:07;34.97;;;17.70;;
30533;SDS011;73248;52.398;9.814;2024-02-28T05:04:33;35.45;;;16.48;;
30533;SDS011;73248;52.398;9.814;2024-02-28T05:06:59;35.20;;;15.25;;
30533;SDS011;73248;52.398;9.814;2024-02-28T05:09:24;29.80;;;15.23;;
30533;SDS011;73248;52.398;9.814;2024-02-28T05:11:50;35.67;;;14.40;;
30533;SDS011;73248;52.398;9.814;2024-02-28T05:14:16;28.50;;;14.93;;
30533;SDS011;73248;52.398;9.814;2024-02-28T05:16:41;38.23;;;18.93;;
30533;SDS011;73248;52.398;9.814;2024-02-28T05:19:07;34.25;;;15.93;;
30533;SDS011;73248;52.398;9.814;2024-02-28T05:21:39;32.35;;;14.50;;
30533;SDS011;73248;52.398;9.814;2024-02-28T05:24:06;34.03;;;14.95;;
30533;SDS011;73248;52.398;9.814;2024-02-28T05:26:31;31.20;;;14.88;;
30533;SDS011;73248;52.398;9.814;2024-02-28T05:28:59;35.10;;;16.25;;
30533;SDS011;73248;52.398;9.814;2024-02-28T05:31:25;30.77;;;15.05;;
30533;SDS011;73248;52.398;9.814;2024-02-28T05:33:55;34.50;;;14.68;;
30533;SDS011;73248;52.398;9.814;2024-02-28T05:36:22;32.45;;;15.02;;
30533;SDS011;73248;52.398;9.814;2024-02-28T05:38:48;31.10;;;15.27;;
30533;SDS011;73248;52.398;9.814;2024-02-28T05:41:15;34.60;;;16.27;;
30533;SDS011;73248;52.398;9.814;2024-02-28T05:46:08;31.02;;;14.30;;
30533;SDS011;73248;52.398;9.814;2024-02-28T05:48:33;36.72;;;15.65;;
30533;SDS011;73248;52.398;9.814;2024-02-28T05:51:02;37.67;;;15.48;;
30533;SDS011;73248;52.398;9.814;2024-02-28T05:53:28;40.83;;;17.35;;
30533;SDS011;73248;52.398;9.814;2024-02-28T05:55:57;36.22;;;16.83;;
30533;SDS011;73248;52.398;9.814;2024-02-28T05:58:23;41.47;;;17.92;;
30533;SDS011;73248;52.398;9.814;2024-02-28T06:00:50;38.25;;;17.85;;
30533;SDS011;73248;52.398;9.814;2024-02-28T06:03:16;48.10;;;20.00;;
30533;SDS011;73248;52.398;9.814;2024-02-28T06:05:42;44.28;;;19.15;;
30533;SDS011;73248;52.398;9.814;2024-02-28T06:08:07;44.60;;;19.05;;
30533;SDS011;73248;52.398;9.814;2024-02-28T06:10:33;44.38;;;18.88;;
30533;SDS011;73248;52.398;9.814;2024-02-28T06:12:58;47.40;;;20.02;;
30533;SDS011;73248;52.398;9.814;2024-02-28T06:15:25;45.30;;;20.48;;
30533;SDS011;73248;52.398;9.814;2024-02-28T06:17:51;48.40;;;21.80;;
30533;SDS011;73248;52.398;9.814;2024-02-28T06:20:17;50.17;;;20.67;;
30533;SDS011;73248;52.398;9.814;2024-02-28T06:22:42;52.15;;;21.98;;
30533;SDS011;73248;52.398;9.814;2024-02-28T06:25:08;49.80;;;21.95;;
30533;SDS011;73248;52.398;9.814;2024-02-28T06:27:43;52.63;;;22.00;;
30533;SDS011;73248;52.398;9.814;2024-02-28T06:30:08;49.70;;;21.63;;
30533;SDS011;73248;52.398;9.814;2024-02-28T06:32:34;50.33;;;22.40;;
30533;SDS011;73248;52.398;9.814;2024-02-28T06:35:00;50.55;;;21.42;;
30533;SDS011;73248;52.398;9.814;2024-02-28T06:37:25;48.17;;;21.45;;
30533;SDS011;73248;52.398;9.814;2024-02-28T06:39:51;47.08;;;20.95;;
30533;SDS011;73248;52.398;9.814;2024-02-28T06:42:18;54.97;;;23.15;;
30533;SDS011;73248;52.398;9.814;2024-02-28T06:44:43;52.90;;;21.50;;
30533;SDS011;73248;52.398;9.814;2024-02-28T06:47:09;48.50;;;21.80;;
30533;SDS011;73248;52.398;9.814;2024-02-28T06:49:34;49.90;;;22.98;;
30533;SDS011;73248;52.398;9.814;2024-02-28T06:52:00;51.05;;;22.92;;
30533;SDS011;73248;52.398;9.814;2024-02-28T06:54:27;49.65;;;21.92;;
30533;SDS011;73248;52.398;9.814;2024-02-28T06:56:52;49.47;;;22.52;;
30533;SDS011;73248;52.398;9.814;2024-02-28T06:59:18;57.33;;;24.17;;
30533;SDS011;73248;52.398;9.814;2024-02-28T07:01:44;52.45;;;22.60;;
30533;SDS011;73248;52.398;9.814;2024-02-28T07:04:10;54.92;;;24.25;;
30533;SDS011;73248;52.398;9.814;2024-02-28T07:06:36;51.95;;;23.25;;
30533;SDS011;73248;52.398;9.814;2024-02-28T07:09:02;59.05;;;24.10;;
30533;SDS011;73248;52.398;9.814;2024-02-28T07:11:27;53.15;;;23.27;;
30533;SDS011;73248;52.398;9.814;2024-02-28T07:13:53;55.05;;;24.02;;
30533;SDS011;73248;52.398;9.814;2024-02-28T07:16:19;57.28;;;25.13;;
30533;SDS011;73248;52.398;9.814;2024-02-28T07:18:44;54.17;;;23.85;;
30533;SDS011;73248;52.398;9.814;2024-02-28T07:21:10;56.50;;;24.98;;
30533;SDS011;73248;52.398;9.814;2024-02-28T07:23:38;60.65;;;25.63;;
30533;SDS011;73248;52.398;9.814;2024-02-28T07:26:05;58.75;;;25.45;;
30533;SDS011;73248;52.398;9.814;2024-02-28T07:28:32;58.58;;;25.92;;
30533;SDS011;73248;52.398;9.814;2024-02-28T07:30:57;54.10;;;23.58;;
30533;SDS011;73248;52.398;9.814;2024-02-28T07:33:23;59.25;;;25.20;;
30533;SDS011;73248;52.398;9.814;2024-02-28T07:35:49;55.13;;;24.35;;
30533;SDS011;73248;52.398;9.814;2024-02-28T07:38:17;54.03;;;24.88;;
30533;SDS011;73248;52.398;9.814;2024-02-28T07:40:45;57.85;;;26.15;;
30533;SDS011;73248;52.398;9.814;2024-02-28T07:43:11;54.42;;;24.05;;
30533;SDS011;73248;52.398;9.814;2024-02-28T07:45:36;58.00;;;24.92;;
30533;SDS011;73248;52.398;9.814;2024-02-28T07:48:02;58.13;;;25.27;;
30533;SDS011;73248;52.398;9.814;2024-02-28T07:50:28;56.17;;;25.17;;
30533;SDS011;73248;52.398;9.814;2024-02-28T07:52:54;58.28;;;25.35;;
30533;SDS011;73248;52.398;9.814;2024-02-28T07:55:20;49.80;;;24.02;;
30533;SDS011;73248;52.398;9.814;2024-02-28T07:57:47;54.40;;;25.50;;
30533;SDS011;73248;52.398;9.814;2024-02-28T08:00:16;57.10;;;25.33;;
30533;SDS011;73248;52.398;9.814;2024-02-28T08:02:44;57.65;;;25.30;;
30533;SDS011;73248;52.398;9.814;2024-02-28T08:05:09;54.10;;;23.98;;
30533;SDS011;73248;52.398;9.814;2024-02-28T08:07:35;57.88;;;25.38;;
30533;SDS011;73248;52.398;9.814;2024-02-28T08:10:01;56.72;;;25.17;;
30533;SDS011;73248;52.398;9.814;2024-02-28T08:12:27;59.10;;;24.92;;
30533;SDS011;73248;52.398;9.814;2024-02-28T08:14:53;53.40;;;24.95;;
30533;SDS011;73248;52.398;9.814;2024-02-28T08:17:18;63.03;;;25.63;;
30533;SDS011;73248;52.398;9.814;2024-02-28T08:19:44;62.47;;;25.48;;
30533;SDS011;73248;52.398;9.814;2024-02-28T08:22:09;60.45;;;26.58;;
30533;SDS011;73248;52.398;9.814;2024-02-28T08:24:35;57.72;;;26.00;;
30533;SDS011;73248;52.398;9.814;2024-02-28T08:27:02;62.90;;;26.73;;
30533;SDS011;73248;52.398;9.814;2024-02-28T08:29:28;61.50;;;26.25;;
30533;SDS011;73248;52.398;9.814;2024-02-28T08:31:53;60.08;;;24.77;;
30533;SDS011;73248;52.398;9.814;2024-02-28T08:34:19;61.85;;;25.17;;
30533;SDS011;73248;52.398;9.814;2024-02-28T08:36:44;57.92;;;25.38;;
30533;SDS011;73248;52.398;9.814;2024-02-28T08:39:10;60.67;;;25.25;;
30533;SDS011;73248;52.398;9.814;2024-02-28T08:41:36;58.83;;;25.27;;
30533;SDS011;73248;52.398;9.814;2024-02-28T08:44:03;60.45;;;25.80;;
30533;SDS011;73248;52.398;9.814;2024-02-28T08:46:29;62.40;;;25.10;;
30533;SDS011;73248;52.398;9.814;2024-02-28T08:48:54;64.25;;;26.50;;
30533;SDS011;73248;52.398;9.814;2024-02-28T08:51:20;59.75;;;25.67;;
30533;SDS011;73248;52.398;9.814;2024-02-28T08:53:46;67.90;;;25.73;;
30533;SDS011;73248;52.398;9.814;2024-02-28T08:56:12;66.10;;;26.83;;
30533;SDS011;73248;52.398;9.814;2024-02-28T08:58:37;59.55;;;25.45;;
30533;SDS011;73248;52.398;9.814;2024-02-28T09:01:03;62.25;;;25.42;;
30533;SDS011;73248;52.398;9.814;2024-02-28T09:03:29;65.25;;;27.70;;
30533;SDS011;73248;52.398;9.814;2024-02-28T09:05:55;56.45;;;25.88;;
30533;SDS011;73248;52.398;9.814;2024-02-28T09:08:20;58.65;;;25.75;;
30533;SDS011;73248;52.398;9.814;2024-02-28T09:10:46;61.40;;;26.25;;
30533;SDS011;73248;52.398;9.814;2024-02-28T09:13:12;59.92;;;24.73;;
30533;SDS011;73248;52.398;9.814;2024-02-28T09:15:38;60.95;;;25.13;;
30533;SDS011;73248;52.398;9.814;2024-02-28T09:18:04;62.38;;;26.67;;
30533;SDS011;73248;52.398;9.814;2024-02-28T09:20:30;61.17;;;26.42;;
30533;SDS011;73248;52.398;9.814;2024-02-28T09:22:55;57.15;;;25.30;;
30533;SDS011;73248;52.398;9.814;2024-02-28T09:25:21;61.58;;;25.88;;
30533;SDS011;73248;52.398;9.814;2024-02-28T09:27:47;59.97;;;26.33;;
30533;SDS011;73248;52.398;9.814;2024-02-28T09:30:13;62.55;;;25.88;;
30533;SDS011;73248;52.398;9.814;2024-02-28T09:32:38;63.72;;;27.00;;
30533;SDS011;73248;52.398;9.814;2024-02-28T09:35:04;58.05;;;25.30;;
30533;SDS011;73248;52.398;9.814;2024-02-28T09:37:31;58.58;;;25.25;;
30533;SDS011;73248;52.398;9.814;2024-02-28T09:39:57;60.28;;;25.60;;
30533;SDS011;73248;52.398;9.814;2024-02-28T09:42:22;55.85;;;24.25;;
30533;SDS011;73248;52.398;9.814;2024-02-28T09:44:48;57.45;;;25.33;;
30533;SDS011;73248;52.398;9.814;2024-02-28T09:47:14;58.38;;;24.55;;
30533;SDS011;73248;52.398;9.814;2024-02-28T09:49:41;57.05;;;24.80;;
30533;SDS011;73248;52.398;9.814;2024-02-28T09:52:07;57.55;;;24.80;;
30533;SDS011;73248;52.398;9.814;2024-02-28T09:54:33;56.28;;;23.77;;
30533;SDS011;73248;52.398;9.814;2024-02-28T09:56:59;54.47;;;22.98;;
30533;SDS011;73248;52.398;9.814;2024-02-28T09:59:25;58.55;;;24.38;;
30533;SDS011;73248;52.398;9.814;2024-02-28T10:01:57;55.88;;;24.92;;
30533;SDS011;73248;52.398;9.814;2024-02-28T10:04:23;51.35;;;23.45;;
30533;SDS011;73248;52.398;9.814;2024-02-28T10:06:50;48.03;;;22.85;;
30533;SDS011;73248;52.398;9.814;2024-02-28T10:09:16;50.65;;;23.73;;
30533;SDS011;73248;52.398;9.814;2024-02-28T10:11:42;48.38;;;22.08;;
30533;SDS011;73248;52.398;9.814;2024-02-28T10:14:17;47.08;;;23.40;;
30533;SDS011;73248;52.398;9.814;2024-02-28T10:16:46;47.33;;;22.65;;
30533;SDS011;73248;52.398;9.814;2024-02-28T10:19:12;51.47;;;23.60;;
30533;SDS011;73248;52.398;9.814;2024-02-28T10:21:37;53.72;;;22.42;;
30533;SDS011;73248;52.398;9.814;2024-02-28T10:24:04;56.10;;;22.85;;
30533;SDS011;73248;52.398;9.814;2024-02-28T10:26:30;50.13;;;23.80;;
30533;SDS011;73248;52.398;9.814;2024-02-28T10:28:59;46.75;;;22.55;;
30533;SDS011;73248;52.398;9.814;2024-02-28T10:31:25;46.50;;;22.73;;
30533;SDS011;73248;52.398;9.814;2024-02-28T10:33:51;48.13;;;22.10;;
30533;SDS011;73248;52.398;9.814;2024-02-28T10:36:17;46.63;;;21.10;;
30533;SDS011;73248;52.398;9.814;2024-02-28T10:38:43;46.33;;;21.45;;
30533;SDS011;73248;52.398;9.814;2024-02-28T10:41:09;47.25;;;21.85;;
30533;SDS011;73248;52.398;9.814;2024-02-28T10:43:38;47.28;;;21.38;;
30533;SDS011;73248;52.398;9.814;2024-02-28T10:46:05;48.08;;;22.40;;
30533;SDS011;73248;52.398;9.814;2024-02-28T10:48:33;49.90;;;23.10;;
30533;SDS011;73248;52.398;9.814;2024-02-28T10:50:58;50.15;;;22.98;;
30533;SDS011;73248;52.398;9.814;2024-02-28T10:53:37;53.20;;;23.33;;
30533;SDS011;73248;52.398;9.814;2024-02-28T10:56:06;47.95;;;23.08;;
30533;SDS011;73248;52.398;9.814;2024-02-28T10:58:36;47.78;;;22.30;;
30533;SDS011;73248;52.398;9.814;2024-02-28T11:01:12;46.55;;;23.15;;
30533;SDS011;73248;52.398;9.814;2024-02-28T11:03:39;52.25;;;23.95;;
30533;SDS011;73248;52.398;9.814;2024-02-28T11:06:15;52.80;;;24.00;;
30533;SDS011;73248;52.398;9.814;2024-02-28T11:08:46;52.88;;;25.48;;
30533;SDS011;73248;52.398;9.814;2024-02-28T11:11:19;50.63;;;23.83;;
30533;SDS011;73248;52.398;9.814;2024-02-28T11:13:52;48.88;;;23.60;;
30533;SDS011;73248;52.398;9.814;2024-02-28T11:16:28;51.72;;;24.73;;
30533;SDS011;73248;52.398;9.814;2024-02-28T11:18:55;49.92;;;23.90;;
30533;SDS011;73248;52.398;9.814;2024-02-28T11:21:25;48.75;;;23.67;;
30533;SDS011;73248;52.398;9.814;2024-02-28T11:23:51;50.08;;;24.10;;
30533;SDS011;73248;52.398;9.814;2024-02-28T11:26:21;50.13;;;23.83;;
30533;SDS011;73248;52.398;9.814;2024-02-28T11:28:47;45.83;;;24.38;;
30533;SDS011;73248;52.398;9.814;2024-02-28T11:31:13;52.00;;;24.70;;
30533;SDS011;73248;52.398;9.814;2024-02-28T11:33:40;48.67;;;23.15;;
30533;SDS011;73248;52.398;9.814;2024-02-28T11:36:05;52.03;;;24.45;;
30533;SDS011;73248;52.398;9.814;2024-02-28T11:38:31;48.47;;;24.50;;
30533;SDS011;73248;52.398;9.814;2024-02-28T11:41:03;43.58;;;22.67;;
30533;SDS011;73248;52.398;9.814;2024-02-28T11:43:30;42.10;;;22.13;;
30533;SDS011;73248;52.398;9.814;2024-02-28T11:45:57;42.55;;;22.27;;
30533;SDS011;73248;52.398;9.814;2024-02-28T11:48:23;46.85;;;23.48;;
30533;SDS011;73248;52.398;9.814;2024-02-28T11:50:51;44.10;;;22.70;;
30533;SDS011;73248;52.398;9.814;2024-02-28T11:53:16;46.67;;;23.20;;
30533;SDS011;73248;52.398;9.814;2024-02-28T11:55:42;45.38;;;22.90;;
30533;SDS011;73248;52.398;9.814;2024-02-28T11:58:08;44.22;;;23.15;;
30533;SDS011;73248;52.398;9.814;2024-02-28T12:00:34;43.15;;;21.83;;
30533;SDS011;73248;52.398;9.814;2024-02-28T12:03:06;42.00;;;20.95;;
30533;SDS011;73248;52.398;9.814;2024-02-28T12:05:32;43.85;;;21.35;;
30533;SDS011;73248;52.398;9.814;2024-02-28T12:07:57;42.78;;;21.92;;
30533;SDS011;73248;52.398;9.814;2024-02-28T12:10:23;41.20;;;20.45;;
30533;SDS011;73248;52.398;9.814;2024-02-28T12:12:50;41.83;;;20.70;;
30533;SDS011;73248;52.398;9.814;2024-02-28T12:15:15;42.58;;;20.58;;
30533;SDS011;73248;52.398;9.814;2024-02-28T12:17:42;38.78;;;20.58;;
30533;SDS011;73248;52.398;9.814;2024-02-28T12:20:11;41.13;;;21.48;;
30533;SDS011;73248;52.398;9.814;2024-02-28T12:22:38;41.00;;;22.20;;
30533;SDS011;73248;52.398;9.814;2024-02-28T12:25:04;44.17;;;22.30;;
30533;SDS011;73248;52.398;9.814;2024-02-28T12:27:31;47.70;;;22.45;;
30533;SDS011;73248;52.398;9.814;2024-02-28T12:29:57;46.65;;;21.88;;
30533;SDS011;73248;52.398;9.814;2024-02-28T12:32:22;47.63;;;22.98;;
30533;SDS011;73248;52.398;9.814;2024-02-28T12:34:48;47.05;;;22.85;;
30533;SDS011;73248;52.398;9.814;2024-02-28T12:37:13;51.35;;;24.60;;
30533;SDS011;73248;52.398;9.814;2024-02-28T12:39:39;47.25;;;23.13;;
30533;SDS011;73248;52.398;9.814;2024-02-28T12:42:05;49.45;;;22.63;;
30533;SDS011;73248;52.398;9.814;2024-02-28T12:44:32;46.87;;;22.80;;
30533;SDS011;73248;52.398;9.814;2024-02-28T12:46:58;47.35;;;23.38;;
30533;SDS011;73248;52.398;9.814;2024-02-28T12:49:23;48.97;;;23.73;;
30533;SDS011;73248;52.398;9.814;2024-02-28T12:51:49;47.47;;;24.13;;
30533;SDS011;73248;52.398;9.814;2024-02-28T12:54:16;45.37;;;24.50;;
30533;SDS011;73248;52.398;9.814;2024-02-28T12:56:42;47.15;;;24.30;;
30533;SDS011;73248;52.398;9.814;2024-02-28T12:59:11;41.85;;;22.55;;
30533;SDS011;73248;52.398;9.814;2024-02-28T13:01:36;44.58;;;23.67;;
30533;SDS011;73248;52.398;9.814;2024-02-28T13:04:03;45.30;;;24.05;;
30533;SDS011;73248;52.398;9.814;2024-02-28T13:06:29;43.95;;;23.98;;
30533;SDS011;73248;52.398;9.814;2024-02-28T13:08:54;43.50;;;22.95;;
30533;SDS011;73248;52.398;9.814;2024-02-28T13:11:21;47.15;;;23.90;;
30533;SDS011;73248;52.398;9.814;2024-02-28T13:13:50;46.78;;;24.77;;
30533;SDS011;73248;52.398;9.814;2024-02-28T13:16:17;44.35;;;23.08;;
30533;SDS011;73248;52.398;9.814;2024-02-28T13:18:44;42.17;;;23.02;;
30533;SDS011;73248;52.398;9.814;2024-02-28T13:21:10;40.22;;;22.20;;
30533;SDS011;73248;52.398;9.814;2024-02-28T13:23:36;39.67;;;20.45;;
30533;SDS011;73248;52.398;9.814;2024-02-28T13:26:05;38.83;;;21.70;;
30533;SDS011;73248;52.398;9.814;2024-02-28T13:28:30;44.63;;;24.70;;
30533;SDS011;73248;52.398;9.814;2024-02-28T13:30:59;40.78;;;22.10;;
30533;SDS011;73248;52.398;9.814;2024-02-28T13:33:26;43.90;;;22.35;;
30533;SDS011;73248;52.398;9.814;2024-02-28T13:35:52;42.95;;;22.42;;
30533;SDS011;73248;52.398;9.814;2024-02-28T13:38:18;42.15;;;22.92;;
30533;SDS011;73248;52.398;9.814;2024-02-28T13:40:45;39.50;;;21.73;;
30533;SDS011;73248;52.398;9.814;2024-02-28T13:43:12;40.57;;;21.70;;
30533;SDS011;73248;52.398;9.814;2024-02-28T13:45:38;43.10;;;23.42;;
30533;SDS011;73248;52.398;9.814;2024-02-28T13:48:28;39.65;;;22.25;;
30533;SDS011;73248;52.398;9.814;2024-02-28T13:50:56;41.80;;;21.35;;
30533;SDS011;73248;52.398;9.814;2024-02-28T13:53:23;43.03;;;21.88;;
30533;SDS011;73248;52.398;9.814;2024-02-28T13:55:49;43.50;;;21.77;;
30533;SDS011;73248;52.398;9.814;2024-02-28T13:58:16;39.97;;;21.70;;
30533;SDS011;73248;52.398;9.814;2024-02-28T14:00:44;41.42;;;22.15;;
30533;SDS011;73248;52.398;9.814;2024-02-28T14:03:11;43.88;;;23.30;;
30533;SDS011;73248;52.398;9.814;2024-02-28T14:05:37;43.22;;;20.95;;
30533;SDS011;73248;52.398;9.814;2024-02-28T14:08:03;37.92;;;20.23;;
30533;SDS011;73248;52.398;9.814;2024-02-28T14:10:29;45.67;;;22.05;;
30533;SDS011;73248;52.398;9.814;2024-02-28T14:12:55;39.80;;;21.10;;
30533;SDS011;73248;52.398;9.814;2024-02-28T14:15:21;42.38;;;22.13;;
30533;SDS011;73248;52.398;9.814;2024-02-28T14:17:50;39.70;;;20.73;;
30533;SDS011;73248;52.398;9.814;2024-02-28T14:20:16;41.83;;;20.48;;
30533;SDS011;73248;52.398;9.814;2024-02-28T14:22:42;36.70;;;20.30;;